Time;durP1;ratioP1;P1;durP2;ratioP2;P2;SDS_P1;SDS_P2;PMS_P1;PMS_P2;Temp;Humidity;BMP_temperature;BMP_pressure;BME280_temperature;BME280_humidity;BME280_pressure;Samples;Min_cycle;Max_cycle;Signal;HPM_P1;HPM_P2
2022/04/02 00:00:44;;;;;;;33.47;14.38;;;0.90;99.90;;;;;;5010981;28;20401;-63
2022/04/02 00:03:10;;;;;;;31.00;14.23;;;1.00;99.90;;;;;;5006711;28;20026;-64
2022/04/02 00:05:35;;;;;;;32.47;14.10;;;0.90;99.90;;;;;;5008667;28;20053;-63
2022/04/02 00:08:01;;;;;;;32.72;14.23;;;0.90;99.90;;;;;;5007044;28;20468;-64
2022/04/02 00:10:27;;;;;;;34.40;14.70;;;0.90;99.90;;;;;;5007632;28;20461;-64
2022/04/02 00:12:55;;;;;;;34.85;14.63;;;0.90;99.90;;;;;;5013238;28;20041;-63
2022/04/02 00:15:21;;;;;;;32.72;14.82;;;0.90;99.90;;;;;;5014796;28;20125;-64
2022/04/02 00:17:47;;;;;;;33.30;15.00;;;0.90;99.90;;;;;;5008595;28;20469;-64
2022/04/02 00:20:13;;;;;;;29.80;14.30;;;0.90;99.90;;;;;;5007572;28;20088;-64
2022/04/02 00:23:35;;;;;;;32.97;14.50;;;0.90;99.90;;;;;;5007399;28;20388;-63
2022/04/02 00:25:24;;;;;;;34.38;15.18;;;0.90;99.90;;;;;;5013325;28;20055;-63
2022/04/02 00:27:50;;;;;;;34.40;15.32;;;0.80;99.90;;;;;;5007422;28;20464;-63
2022/04/02 00:30:16;;;;;;;32.10;13.82;;;0.90;99.90;;;;;;5007465;28;20463;-61
2022/04/02 00:32:42;;;;;;;38.03;15.52;;;0.90;99.90;;;;;;5008869;28;20061;-63
2022/04/02 00:35:09;;;;;;;35.20;15.57;;;0.90;99.90;;;;;;5013761;28;20072;-64
2022/04/02 00:37:34;;;;;;;33.53;14.23;;;0.90;99.90;;;;;;5015428;28;20049;-64
2022/04/02 00:40:00;;;;;;;34.80;15.20;;;0.90;99.90;;;;;;5005734;28;20477;-64
2022/04/02 00:42:26;;;;;;;32.75;15.07;;;0.90;99.90;;;;;;5007749;28;20030;-63
2022/04/02 00:44:52;;;;;;;33.72;15.10;;;0.90;99.90;;;;;;5013168;28;20468;-63
2022/04/02 00:47:20;;;;;;;32.13;15.10;;;0.90;99.90;;;;;;5007448;28;20528;-62
2022/04/02 00:49:46;;;;;;;33.80;15.18;;;0.80;99.90;;;;;;5008559;28;20136;-64
2022/04/02 00:52:13;;;;;;;34.42;15.23;;;0.80;99.90;;;;;;5007736;28;20045;-62
2022/04/02 00:54:40;;;;;;;35.20;15.48;;;0.80;99.90;;;;;;5008216;28;20042;-64
2022/04/02 00:57:06;;;;;;;37.33;15.68;;;0.90;99.90;;;;;;5008414;28;20030;-64
2022/04/02 00:59:32;;;;;;;32.28;14.90;;;0.80;99.90;;;;;;5007886;28;20029;-64
2022/04/02 01:01:57;;;;;;;34.90;15.13;;;0.80;99.90;;;;;;5007711;28;20073;-64
2022/04/02 01:04:23;;;;;;;38.15;15.77;;;0.80;99.90;;;;;;5008193;28;20069;-64
2022/04/02 01:06:50;;;;;;;42.55;16.77;;;0.80;99.90;;;;;;5008425;28;20061;-63
2022/04/02 01:09:16;;;;;;;38.80;15.52;;;0.90;99.90;;;;;;5007732;28;20303;-63
2022/04/02 01:11:43;;;;;;;32.80;14.90;;;0.80;99.90;;;;;;5008233;28;20068;-63
2022/04/02 01:14:10;;;;;;;37.80;15.75;;;0.90;99.90;;;;;;5007995;28;20033;-63
2022/04/02 01:16:36;;;;;;;33.30;14.75;;;0.90;99.90;;;;;;5007839;28;20040;-64
2022/04/02 01:19:03;;;;;;;40.17;15.68;;;0.80;99.90;;;;;;5007612;28;20385;-63
2022/04/02 01:21:29;;;;;;;35.53;15.90;;;0.80;99.90;;;;;;5008352;28;20037;-63
2022/04/02 01:23:59;;;;;;;36.03;15.77;;;0.90;99.90;;;;;;5008237;28;20054;-65
2022/04/02 01:26:26;;;;;;;36.30;16.13;;;0.90;99.90;;;;;;5008068;28;20558;-63
2022/04/02 01:28:58;;;;;;;34.95;15.45;;;0.90;99.90;;;;;;5008249;28;20026;-63
2022/04/02 01:31:25;;;;;;;39.40;16.85;;;0.80;99.90;;;;;;5010659;28;20038;-63
2022/04/02 01:33:52;;;;;;;35.17;14.98;;;0.80;99.90;;;;;;5009383;28;20115;-63
2022/04/02 01:36:18;;;;;;;39.50;15.45;;;0.80;99.90;;;;;;5007739;28;20083;-63
2022/04/02 01:38:44;;;;;;;39.10;15.50;;;0.80;99.90;;;;;;5010287;28;20467;-63
2022/04/02 01:41:10;;;;;;;40.50;15.82;;;0.70;99.90;;;;;;5007141;28;20045;-63
2022/04/02 01:43:35;;;;;;;38.25;15.27;;;0.70;99.90;;;;;;5025198;28;20085;-64
2022/04/02 01:46:02;;;;;;;43.50;14.75;;;0.70;99.90;;;;;;5007939;28;20048;-64
2022/04/02 01:48:28;;;;;;;34.63;14.68;;;0.70;99.90;;;;;;5015010;28;20529;-63
2022/04/02 01:50:54;;;;;;;32.85;14.10;;;0.70;99.90;;;;;;5010059;28;20022;-63
2022/04/02 01:53:21;;;;;;;36.78;15.32;;;0.70;99.90;;;;;;5006715;28;20033;-64
2022/04/02 01:55:47;;;;;;;34.55;14.98;;;0.70;99.90;;;;;;5011614;28;20045;-63
2022/04/02 01:58:13;;;;;;;36.30;14.77;;;0.60;99.90;;;;;;5010830;28;20309;-64
2022/04/02 02:00:40;;;;;;;35.17;14.30;;;0.60;99.90;;;;;;5011620;28;20029;-63
2022/04/02 02:03:09;;;;;;;39.72;15.05;;;0.70;99.90;;;;;;5009735;28;20506;-63
2022/04/02 02:05:35;;;;;;;36.70;15.20;;;0.70;99.90;;;;;;5011229;28;20076;-64
2022/04/02 02:08:02;;;;;;;33.42;14.43;;;0.70;99.90;;;;;;5011082;28;20104;-64
2022/04/02 02:10:28;;;;;;;37.72;15.27;;;0.70;99.90;;;;;;5011765;28;20034;-64
2022/04/02 02:12:54;;;;;;;39.00;15.43;;;0.70;99.90;;;;;;5015435;28;20041;-63
2022/04/02 02:15:20;;;;;;;34.47;15.18;;;0.80;99.90;;;;;;5009225;28;20599;-63
2022/04/02 02:17:49;;;;;;;37.15;16.23;;;0.80;99.90;;;;;;5010483;28;20479;-63
2022/04/02 02:20:17;;;;;;;36.50;15.35;;;0.80;99.90;;;;;;5010255;28;20156;-63
2022/04/02 02:22:44;;;;;;;32.72;14.65;;;0.70;99.90;;;;;;5014358;28;20041;-63
2022/04/02 02:25:13;;;;;;;32.65;14.23;;;0.80;99.90;;;;;;5014557;28;20121;-63
2022/04/02 02:27:40;;;;;;;34.63;14.02;;;0.80;99.90;;;;;;5009428;28;20041;-64
2022/04/02 02:30:08;;;;;;;32.13;13.95;;;0.80;99.90;;;;;;5009193;28;20042;-63
2022/04/02 02:32:37;;;;;;;34.63;14.60;;;0.80;99.90;;;;;;4995048;28;20042;-63
2022/04/02 02:38:10;;;;;;;34.47;13.18;;;0.70;99.90;;;;;;5011170;28;20126;-63
2022/04/02 02:40:38;;;;;;;32.63;12.60;;;0.70;99.90;;;;;;5011142;28;20053;-63
2022/04/02 02:43:06;;;;;;;31.20;13.10;;;0.60;99.90;;;;;;5009264;28;20030;-64
2022/04/02 02:45:33;;;;;;;29.50;13.38;;;0.60;99.90;;;;;;5009988;28;20033;-64
2022/04/02 02:48:00;;;;;;;30.73;12.52;;;0.50;99.90;;;;;;5016941;28;20036;-64
2022/04/02 02:50:26;;;;;;;35.97;12.60;;;0.40;99.90;;;;;;5009884;28;20523;-64
2022/04/02 02:52:52;;;;;;;30.63;13.63;;;0.50;99.90;;;;;;5010019;28;20046;-63
2022/04/02 02:55:18;;;;;;;33.08;12.95;;;0.50;99.90;;;;;;5014352;28;20480;-63
2022/04/02 02:57:45;;;;;;;33.13;13.63;;;0.40;99.90;;;;;;5009264;28;20022;-63
2022/04/02 03:00:13;;;;;;;33.08;13.52;;;0.40;99.90;;;;;;5009381;28;21156;-64
2022/04/02 03:02:39;;;;;;;30.67;12.25;;;0.30;99.90;;;;;;5011745;28;20034;-63
2022/04/02 03:05:10;;;;;;;30.40;13.23;;;0.30;99.90;;;;;;5011951;28;20536;-63
2022/04/02 03:07:50;;;;;;;29.42;12.20;;;0.30;99.90;;;;;;5011989;28;20384;-63
2022/04/02 03:10:27;;;;;;;23.75;9.15;;;0.30;99.90;;;;;;5010548;28;20036;-64
2022/04/02 03:12:55;;;;;;;33.92;12.20;;;0.30;99.90;;;;;;5006897;28;20087;-64
2022/04/02 03:15:21;;;;;;;29.00;12.18;;;0.30;99.90;;;;;;5011080;28;20080;-62
2022/04/02 03:17:52;;;;;;;31.50;12.05;;;0.30;99.90;;;;;;5009219;28;20040;-64
2022/04/02 03:20:19;;;;;;;28.83;12.32;;;0.20;99.90;;;;;;5006393;28;20065;-64
2022/04/02 03:22:46;;;;;;;27.42;11.25;;;0.20;99.90;;;;;;5009031;28;20029;-64
2022/04/02 03:25:17;;;;;;;25.10;11.73;;;0.20;99.90;;;;;;5012411;28;20026;-63
2022/04/02 03:27:44;;;;;;;;;;;0.10;99.90;;;;;;5008022;28;20034;-64
2022/04/02 03:30:11;;;;;;;26.63;9.45;;;0.10;99.90;;;;;;5014304;28;20283;-63
2022/04/02 03:32:37;;;;;;;26.05;10.07;;;0.10;99.90;;;;;;5008810;28;20050;-64
2022/04/02 03:35:04;;;;;;;28.35;10.07;;;0.00;99.90;;;;;;5014474;28;20072;-64
2022/04/02 03:37:30;;;;;;;25.15;9.80;;;0.00;99.90;;;;;;5009542;28;20026;-63
2022/04/02 03:39:57;;;;;;;25.70;9.75;;;-0.10;99.90;;;;;;5013247;28;20036;-63
2022/04/02 03:42:23;;;;;;;30.88;9.45;;;-0.10;99.90;;;;;;5011075;28;20861;-63
2022/04/02 03:44:50;;;;;;;27.55;9.93;;;0.00;99.90;;;;;;5007678;28;20034;-64
2022/04/02 03:47:16;;;;;;;24.60;10.02;;;0.00;99.90;;;;;;5010888;28;20018;-65
2022/04/02 03:49:44;;;;;;;25.35;9.38;;;0.10;99.90;;;;;;5006191;28;20538;-64
2022/04/02 03:52:11;;;;;;;25.60;10.52;;;0.10;99.90;;;;;;5003947;28;20108;-63
2022/04/02 03:54:38;;;;;;;26.42;10.27;;;0.20;99.90;;;;;;5007443;28;20065;-64
2022/04/02 03:57:05;;;;;;;25.40;10.43;;;0.20;99.90;;;;;;5009555;28;20080;-65
2022/04/02 03:59:32;;;;;;;30.75;10.65;;;0.10;99.90;;;;;;5015460;28;20747;-64
2022/04/02 04:01:59;;;;;;;28.77;11.60;;;0.20;99.90;;;;;;5008769;28;20044;-63
2022/04/02 04:04:25;;;;;;;27.50;10.30;;;0.20;99.90;;;;;;5007497;28;20065;-64
2022/04/02 04:06:52;;;;;;;33.65;11.02;;;0.30;99.90;;;;;;5000527;28;20034;-64
2022/04/02 04:09:19;;;;;;;31.42;10.38;;;0.20;99.90;;;;;;5000567;28;20056;-64
2022/04/02 04:11:44;;;;;;;25.92;10.25;;;0.20;99.90;;;;;;5006860;28;20034;-64
2022/04/02 04:14:10;;;;;;;25.52;10.15;;;0.20;99.90;;;;;;5012243;28;20083;-63
2022/04/02 04:16:36;;;;;;;26.77;10.95;;;0.20;99.90;;;;;;5007680;28;20069;-63
2022/04/02 04:19:02;;;;;;;27.20;10.13;;;0.20;99.90;;;;;;5008326;28;20026;-64
2022/04/02 04:21:28;;;;;;;30.15;10.60;;;0.20;99.90;;;;;;5009101;28;20671;-63
2022/04/02 04:23:54;;;;;;;22.13;8.88;;;0.10;99.90;;;;;;5006724;28;20038;-64
2022/04/02 04:26:20;;;;;;;25.83;9.60;;;0.20;99.90;;;;;;5006168;28;20030;-64
2022/04/02 04:28:46;;;;;;;29.60;9.90;;;0.10;99.90;;;;;;5007113;28;20071;-66
2022/04/02 04:31:17;;;;;;;23.27;9.43;;;0.20;99.90;;;;;;4999950;28;20412;-64
2022/04/02 04:33:46;;;;;;;27.63;11.60;;;0.20;99.90;;;;;;5006132;28;20039;-62
2022/04/02 04:36:12;;;;;;;29.90;10.90;;;0.20;99.90;;;;;;5008155;28;20084;-64
2022/04/02 04:38:38;;;;;;;24.27;9.73;;;0.30;99.90;;;;;;5004647;28;20571;-64
2022/04/02 04:41:04;;;;;;;25.88;9.77;;;0.20;99.90;;;;;;5007500;28;20040;-64
2022/04/02 04:43:30;;;;;;;25.95;9.35;;;0.20;99.90;;;;;;5003512;28;20105;-64
2022/04/02 04:45:57;;;;;;;24.48;9.43;;;0.10;99.90;;;;;;5015168;28;20029;-63
2022/04/02 04:48:23;;;;;;;25.10;8.88;;;0.10;99.90;;;;;;5011570;28;20745;-63
2022/04/02 04:50:49;;;;;;;23.60;9.18;;;0.10;99.90;;;;;;5007071;28;20069;-63
2022/04/02 04:53:15;;;;;;;23.80;9.63;;;0.00;99.90;;;;;;5010329;28;20034;-64
2022/04/02 04:55:41;;;;;;;28.52;10.13;;;0.00;99.90;;;;;;5008947;28;20449;-63
2022/04/02 04:58:07;;;;;;;25.95;9.02;;;0.00;99.90;;;;;;5002570;28;20031;-62
2022/04/02 05:00:33;;;;;;;26.73;9.85;;;-0.10;99.90;;;;;;5007584;28;20034;-63
2022/04/02 05:02:59;;;;;;;25.40;9.10;;;-0.10;99.90;;;;;;5008186;28;20087;-64
2022/04/02 05:05:27;;;;;;;23.27;9.52;;;-0.10;99.90;;;;;;5006344;28;20550;-64
2022/04/02 05:07:53;;;;;;;19.40;8.80;;;0.00;99.90;;;;;;5010451;28;20064;-64
2022/04/02 05:10:19;;;;;;;28.35;9.18;;;0.00;99.90;;;;;;5000933;28;20026;-64
2022/04/02 05:12:45;;;;;;;22.75;8.43;;;-0.10;99.90;;;;;;5011267;28;20041;-63
2022/04/02 05:15:10;;;;;;;21.90;8.90;;;-0.10;99.90;;;;;;5008085;28;20108;-63
2022/04/02 05:17:37;;;;;;;21.42;8.70;;;-0.10;99.90;;;;;;5008217;28;20036;-63
2022/04/02 05:20:05;;;;;;;22.85;8.65;;;0.00;99.90;;;;;;5006778;28;20018;-64
2022/04/02 05:22:31;;;;;;;23.80;8.98;;;-0.10;99.90;;;;;;5006606;28;20119;-64
2022/04/02 05:24:57;;;;;;;24.15;9.70;;;0.00;99.90;;;;;;5006745;28;20057;-62
2022/04/02 05:27:24;;;;;;;23.70;9.52;;;0.00;99.90;;;;;;5000814;28;20530;-64
2022/04/02 05:29:51;;;;;;;30.17;10.35;;;0.00;99.90;;;;;;5011358;28;20499;-63
2022/04/02 05:32:16;;;;;;;23.42;9.65;;;0.10;99.90;;;;;;5010980;28;20080;-63
2022/04/02 05:34:42;;;;;;;25.33;9.40;;;0.10;99.90;;;;;;5001415;28;20477;-63
2022/04/02 05:37:08;;;;;;;24.00;10.20;;;0.20;99.90;;;;;;5007227;28;20061;-64
2022/04/02 05:39:34;;;;;;;22.38;9.55;;;0.10;99.90;;;;;;5025722;28;20603;-64
2022/04/02 05:42:00;;;;;;;22.13;8.98;;;0.10;99.90;;;;;;5012104;28;20112;-64
2022/04/02 05:44:26;;;;;;;26.00;9.35;;;0.20;99.90;;;;;;5003960;28;20124;-62
2022/04/02 05:46:52;;;;;;;22.90;9.25;;;0.20;99.90;;;;;;5011243;28;20500;-63
2022/04/02 05:49:17;;;;;;;22.35;8.98;;;0.20;99.90;;;;;;5006436;28;20121;-64
2022/04/02 05:51:43;;;;;;;22.25;8.98;;;0.10;99.90;;;;;;5005386;28;20038;-64
2022/04/02 05:54:12;;;;;;;20.08;9.02;;;0.20;99.90;;;;;;5010854;28;20033;-63
2022/04/02 05:56:40;;;;;;;21.95;8.38;;;0.20;99.90;;;;;;5009676;28;20468;-63
2022/04/02 05:59:07;;;;;;;21.58;8.20;;;0.20;99.90;;;;;;5009514;28;20022;-64
2022/04/02 06:01:34;;;;;;;21.75;8.88;;;0.30;99.90;;;;;;5014880;28;20163;-63
2022/04/02 06:03:59;;;;;;;22.40;8.82;;;0.20;99.90;;;;;;5010223;28;20828;-64
2022/04/02 06:06:25;;;;;;;29.02;11.48;;;0.20;99.90;;;;;;5010817;28;20126;-64
2022/04/02 06:08:51;;;;;;;22.63;9.45;;;0.20;99.90;;;;;;5008821;28;20112;-64
2022/04/02 06:11:16;;;;;;;24.27;8.57;;;0.30;99.90;;;;;;5013038;28;20030;-64
2022/04/02 06:13:42;;;;;;;20.75;9.13;;;0.30;99.90;;;;;;5010340;28;20033;-63
2022/04/02 06:16:08;;;;;;;24.73;11.68;;;0.40;99.90;;;;;;5010552;28;20026;-63
2022/04/02 06:18:35;;;;;;;29.20;9.13;;;0.40;99.90;;;;;;5010032;28;20041;-64
2022/04/02 06:21:03;;;;;;;21.60;8.32;;;0.40;99.90;;;;;;5017073;28;20034;-64
2022/04/02 06:23:30;;;;;;;20.63;9.15;;;0.40;99.90;;;;;;5009835;28;20120;-64
2022/04/02 06:25:56;;;;;;;25.60;10.48;;;0.50;99.90;;;;;;5011204;28;20026;-64
2022/04/02 06:28:22;;;;;;;23.80;10.27;;;0.50;99.90;;;;;;5010047;28;20042;-63
2022/04/02 06:30:48;;;;;;;21.92;8.65;;;0.50;99.90;;;;;;5010615;28;20034;-63
2022/04/02 06:33:14;;;;;;;23.08;8.40;;;0.50;99.90;;;;;;5009371;28;20138;-63
2022/04/02 06:35:40;;;;;;;22.75;9.63;;;0.50;99.90;;;;;;5011970;28;20034;-64
2022/04/02 06:38:06;;;;;;;22.15;9.55;;;0.40;99.90;;;;;;5005533;28;20089;-64
2022/04/02 06:40:32;;;;;;;25.48;9.55;;;0.50;99.90;;;;;;5012725;28;20026;-64
2022/04/02 06:42:58;;;;;;;21.70;9.77;;;0.30;99.90;;;;;;5011417;28;20083;-64
2022/04/02 06:45:27;;;;;;;20.05;9.07;;;0.30;99.90;;;;;;5011044;28;20109;-64
2022/04/02 06:47:52;;;;;;;20.20;9.02;;;0.30;99.90;;;;;;5008932;28;20042;-64
2022/04/02 06:50:18;;;;;;;22.25;9.77;;;0.50;99.90;;;;;;5009996;28;20037;-64
2022/04/02 06:52:45;;;;;;;19.65;8.68;;;0.50;99.90;;;;;;5011231;28;20084;-64
2022/04/02 06:55:12;;;;;;;23.95;8.68;;;0.50;99.90;;;;;;5011073;28;20034;-63
2022/04/02 06:57:43;;;;;;;20.85;8.30;;;0.50;99.90;;;;;;5002415;28;20033;-64
2022/04/02 07:00:09;;;;;;;;;;;0.70;99.90;;;;;;5011665;28;20426;-64
2022/04/02 07:02:35;;;;;;;20.52;8.27;;;0.70;99.90;;;;;;5014951;28;20079;-64
2022/04/02 07:05:00;;;;;;;19.23;8.20;;;0.70;99.90;;;;;;5009356;28;20150;-64
2022/04/02 07:07:26;;;;;;;22.73;8.93;;;0.70;99.90;;;;;;5013016;28;20059;-64
2022/04/02 07:09:51;;;;;;;20.73;9.38;;;0.70;99.90;;;;;;5009147;28;20034;-64
2022/04/02 07:12:17;;;;;;;21.17;9.05;;;0.80;99.90;;;;;;5010389;28;20042;-64
2022/04/02 07:14:43;;;;;;;20.48;8.55;;;0.80;99.90;;;;;;5009727;28;20026;-64
2022/04/02 07:17:08;;;;;;;22.38;8.20;;;0.90;99.90;;;;;;5010103;28;20109;-64
2022/04/02 07:19:36;;;;;;;18.58;7.95;;;0.80;99.90;;;;;;5008982;28;20052;-64
2022/04/02 07:22:08;;;;;;;18.92;8.10;;;0.80;99.90;;;;;;5009430;28;20030;-64
2022/04/02 07:24:37;;;;;;;22.23;8.00;;;0.90;99.90;;;;;;5009541;28;20040;-64
2022/04/02 07:27:02;;;;;;;17.40;7.97;;;0.90;99.90;;;;;;5010881;28;20021;-64
2022/04/02 07:29:32;;;;;;;18.40;8.05;;;1.00;99.90;;;;;;5009826;28;20548;-64
2022/04/02 07:31:58;;;;;;;25.67;8.50;;;1.00;99.90;;;;;;5014624;28;20500;-64
2022/04/02 07:34:23;;;;;;;15.38;7.25;;;1.00;99.90;;;;;;5009155;28;20041;-63
2022/04/02 07:37:05;;;;;;;19.65;8.20;;;1.00;99.90;;;;;;5009592;28;20038;-64
2022/04/02 07:39:57;;;;;;;15.30;7.57;;;1.10;99.90;;;;;;5009120;28;20108;-64
2022/04/02 07:42:37;;;;;;;21.38;8.18;;;1.10;99.90;;;;;;5011172;28;20037;-64
2022/04/02 07:45:05;;;;;;;20.50;8.32;;;1.00;99.90;;;;;;5011419;28;20544;-65
2022/04/02 07:47:44;;;;;;;17.30;8.23;;;1.00;99.90;;;;;;5009374;28;20038;-64
2022/04/02 07:50:15;;;;;;;19.85;7.90;;;1.10;99.90;;;;;;5004294;28;20066;-65
2022/04/02 07:52:45;;;;;;;21.67;9.82;;;1.10;99.90;;;;;;5008846;28;20049;-64
2022/04/02 07:55:12;;;;;;;19.13;8.93;;;1.10;99.90;;;;;;5009633;28;20029;-64
2022/04/02 07:57:41;;;;;;;24.75;10.13;;;1.10;99.90;;;;;;5007930;28;20029;-65
2022/04/02 08:00:10;;;;;;;19.23;8.02;;;1.20;99.90;;;;;;5009863;28;20045;-65
2022/04/02 08:02:38;;;;;;;21.98;8.45;;;1.20;99.90;;;;;;5013666;28;20037;-64
2022/04/02 08:05:10;;;;;;;21.17;9.32;;;1.20;99.90;;;;;;5007449;28;20136;-63
2022/04/02 08:07:38;;;;;;;22.20;9.30;;;1.20;99.90;;;;;;5008710;28;20026;-64
2022/04/02 08:10:06;;;;;;;21.75;9.95;;;1.20;99.90;;;;;;5009774;28;20053;-64
2022/04/02 08:12:37;;;;;;;19.05;8.63;;;1.20;99.90;;;;;;5008913;28;20088;-64
2022/04/02 08:15:13;;;;;;;19.73;9.10;;;1.10;99.90;;;;;;5009962;28;20827;-64
2022/04/02 08:17:40;;;;;;;20.27;9.63;;;1.10;99.90;;;;;;5010262;28;20136;-64
2022/04/02 08:20:07;;;;;;;26.27;10.55;;;1.20;99.90;;;;;;5009398;28;20030;-63
2022/04/02 08:22:33;;;;;;;29.50;11.70;;;1.00;99.90;;;;;;5008462;28;20071;-64
2022/04/02 08:24:59;;;;;;;31.05;12.57;;;1.00;99.90;;;;;;5010293;28;20465;-63
2022/04/02 08:27:35;;;;;;;25.60;10.60;;;1.10;99.90;;;;;;5014016;28;20080;-64
2022/04/02 08:30:07;;;;;;;29.60;11.63;;;1.10;99.90;;;;;;5009342;28;20084;-64
2022/04/02 08:32:49;;;;;;;38.88;15.30;;;1.10;99.90;;;;;;5010443;28;20459;-64
2022/04/02 08:35:20;;;;;;;24.73;10.18;;;1.10;99.90;;;;;;5012553;28;20029;-64
2022/04/02 08:37:52;;;;;;;24.77;10.13;;;1.10;99.90;;;;;;5011186;28;20025;-65
2022/04/02 08:40:36;;;;;;;22.98;9.80;;;1.10;99.90;;;;;;5010550;28;20036;-64
2022/04/02 08:43:18;;;;;;;24.60;10.23;;;1.20;99.90;;;;;;5000803;28;20038;-64
2022/04/02 08:46:12;;;;;;;22.17;8.75;;;1.40;99.90;;;;;;5008874;28;20041;-64
2022/04/02 08:48:58;;;;;;;18.25;8.43;;;1.20;99.90;;;;;;5002300;28;20048;-63
2022/04/02 08:51:38;;;;;;;28.27;10.85;;;1.10;99.90;;;;;;5008837;28;20049;-64
2022/04/02 08:54:06;;;;;;;19.95;9.20;;;1.00;99.90;;;;;;5002934;28;20057;-64
2022/04/02 08:56:37;;;;;;;24.42;10.15;;;1.10;99.90;;;;;;5007687;28;20042;-63
2022/04/02 08:59:29;;;;;;;29.20;10.93;;;1.10;99.90;;;;;;5006779;28;20396;-64
2022/04/02 09:02:07;;;;;;;22.92;8.98;;;1.30;99.90;;;;;;5001062;28;20029;-63
2022/04/02 09:05:11;;;;;;;24.17;10.43;;;1.40;99.90;;;;;;5006892;28;20072;-65
2022/04/02 09:08:01;;;;;;;29.00;10.43;;;1.30;99.90;;;;;;5007992;28;20464;-63
2022/04/02 09:10:48;;;;;;;23.40;9.57;;;1.30;99.90;;;;;;5008672;28;20057;-63
2022/04/02 09:13:47;;;;;;;28.30;10.85;;;1.30;99.90;;;;;;4999724;28;20038;-64
2022/04/02 09:16:35;;;;;;;20.60;8.65;;;1.30;99.90;;;;;;5007271;28;20030;-64
2022/04/02 09:19:27;;;;;;;24.95;9.73;;;1.30;99.90;;;;;;5000787;28;20033;-64
2022/04/02 09:21:58;;;;;;;33.83;11.63;;;1.40;99.90;;;;;;5014427;28;20065;-64
2022/04/02 09:24:37;;;;;;;23.80;9.98;;;1.40;99.90;;;;;;5009979;28;20384;-64
2022/04/02 09:27:19;;;;;;;24.73;10.50;;;1.50;99.90;;;;;;5008962;28;20029;-63
2022/04/02 09:30:18;;;;;;;27.27;10.65;;;1.40;99.90;;;;;;5005968;28;20553;-64
2022/04/02 09:33:22;;;;;;;29.40;10.95;;;1.30;99.90;;;;;;5007510;28;20088;-64
2022/04/02 09:36:13;;;;;;;26.85;11.00;;;1.40;99.90;;;;;;5006883;28;20491;-64
2022/04/02 09:38:39;;;;;;;24.67;10.93;;;1.50;99.90;;;;;;5015593;28;20037;-64
2022/04/02 09:41:16;;;;;;;20.02;9.18;;;1.70;99.90;;;;;;5016277;28;20034;-64
2022/04/02 09:44:11;;;;;;;23.30;10.35;;;1.70;99.90;;;;;;5012441;28;20033;-64
2022/04/02 09:46:58;;;;;;;32.85;13.40;;;1.60;99.90;;;;;;5003799;28;20130;-64
2022/04/02 09:49:42;;;;;;;24.17;11.18;;;1.60;99.90;;;;;;5002414;28;20034;-64
2022/04/02 09:52:14;;;;;;;25.45;10.77;;;1.70;99.90;;;;;;5007644;28;20041;-64
2022/04/02 09:55:03;;;;;;;30.10;12.48;;;1.80;99.90;;;;;;5006545;28;20279;-64
2022/04/02 09:57:48;;;;;;;24.55;10.30;;;1.70;99.90;;;;;;5012730;28;20047;-64
2022/04/02 10:00:19;;;;;;;22.08;9.65;;;1.50;99.90;;;;;;4999105;28;20041;-64
2022/04/02 10:03:21;;;;;;;21.08;8.98;;;1.50;99.90;;;;;;5007461;28;20034;-64
2022/04/02 10:06:15;;;;;;;21.50;9.43;;;1.40;99.90;;;;;;5003822;28;20081;-65
2022/04/02 10:09:09;;;;;;;20.70;9.35;;;1.50;99.90;;;;;;5007565;28;20133;-64
2022/04/02 10:12:02;;;;;;;26.15;11.15;;;1.60;99.90;;;;;;5002230;28;20465;-64
2022/04/02 10:14:29;;;;;;;29.65;11.23;;;1.70;99.90;;;;;;5002122;28;20504;-64
2022/04/02 10:17:04;;;;;;;26.65;10.60;;;1.60;99.90;;;;;;5016760;28;20373;-64
2022/04/02 10:19:35;;;;;;;19.75;9.30;;;1.40;99.90;;;;;;5011079;28;20041;-64
2022/04/02 10:22:04;;;;;;;;;;;1.40;99.90;;;;;;5010536;28;20049;-64
2022/04/02 10:24:39;;;;;;;22.45;9.57;;;1.40;99.90;;;;;;5016195;28;19916;-64
2022/04/02 10:27:09;;;;;;;21.42;9.07;;;1.60;99.90;;;;;;5011235;28;20049;-65
2022/04/02 10:29:59;;;;;;;21.67;9.15;;;1.80;99.90;;;;;;5009278;28;20038;-64
2022/04/02 10:32:53;;;;;;;21.50;10.20;;;1.70;99.90;;;;;;5003434;28;20572;-64
2022/04/02 10:35:20;;;;;;;20.50;8.90;;;1.70;99.90;;;;;;5011923;28;20040;-64
2022/04/02 10:37:52;;;;;;;21.88;10.57;;;1.60;99.90;;;;;;5010458;28;20036;-64
2022/04/02 10:40:20;;;;;;;20.88;10.05;;;1.60;99.90;;;;;;5010764;28;20555;-64
2022/04/02 10:43:11;;;;;;;20.38;9.55;;;1.80;99.90;;;;;;5010878;28;20416;-64
2022/04/02 10:45:41;;;;;;;25.75;11.25;;;1.90;99.90;;;;;;5006950;28;20112;-64
2022/04/02 10:48:13;;;;;;;23.27;9.60;;;1.90;99.90;;;;;;5009960;28;20060;-64
2022/04/02 10:50:42;;;;;;;26.95;11.65;;;1.90;99.90;;;;;;5010561;28;20081;-64
2022/04/02 10:53:11;;;;;;;21.13;9.45;;;1.90;99.90;;;;;;5015118;28;20034;-64
2022/04/02 10:55:48;;;;;;;28.02;11.75;;;1.90;99.90;;;;;;5010326;28;20105;-65
2022/04/02 10:58:14;;;;;;;24.08;10.23;;;1.80;99.90;;;;;;5012969;28;20546;-64
2022/04/02 11:00:47;;;;;;;25.02;12.35;;;1.80;99.90;;;;;;5010700;28;20037;-65
2022/04/02 11:03:25;;;;;;;20.50;10.10;;;1.90;99.90;;;;;;5011279;28;20037;-64
2022/04/02 11:05:51;;;;;;;21.98;10.65;;;1.90;99.90;;;;;;5009905;28;20081;-64
2022/04/02 11:08:22;;;;;;;23.65;10.23;;;1.90;99.90;;;;;;5009596;28;20034;-64
2022/04/02 11:10:48;;;;;;;20.38;9.60;;;1.90;99.90;;;;;;5009122;28;20453;-64
2022/04/02 11:13:30;;;;;;;27.35;10.73;;;1.90;99.90;;;;;;5009715;28;20069;-64
2022/04/02 11:15:57;;;;;;;21.75;10.30;;;2.00;99.90;;;;;;5008443;28;20101;-65
2022/04/02 11:18:24;;;;;;;24.27;11.32;;;2.00;99.90;;;;;;5009149;28;20030;-64
2022/04/02 11:20:54;;;;;;;23.35;10.05;;;2.10;99.90;;;;;;5009379;28;20045;-63
2022/04/02 11:24:01;;;;;;;25.80;11.20;;;2.00;99.90;;;;;;5009171;28;20060;-63
2022/04/02 11:26:30;;;;;;;28.00;11.50;;;1.80;99.90;;;;;;5009179;28;20042;-64
2022/04/02 11:29:02;;;;;;;35.50;15.32;;;1.80;99.90;;;;;;5012979;28;20017;-64
2022/04/02 11:31:28;;;;;;;33.72;14.13;;;1.70;99.90;;;;;;5010434;28;20029;-64
2022/04/02 11:33:57;;;;;;;29.80;12.57;;;1.60;99.90;;;;;;5009538;28;20045;-64
2022/04/02 11:36:42;;;;;;;22.65;10.32;;;1.60;99.90;;;;;;5009907;28;20030;-67
2022/04/02 11:39:11;;;;;;;22.67;10.63;;;1.60;99.90;;;;;;5008053;28;20092;-67
2022/04/02 11:41:44;;;;;;;25.40;9.93;;;1.70;99.90;;;;;;5009348;28;20022;-68
2022/04/02 11:44:16;;;;;;;21.30;10.40;;;1.60;99.90;;;;;;5010519;28;20076;-66
2022/04/02 11:47:05;;;;;;;23.10;9.98;;;1.60;99.90;;;;;;5009090;28;20030;-66
2022/04/02 11:49:33;;;;;;;20.95;10.18;;;1.60;99.90;;;;;;5009655;28;20045;-66
2022/04/02 11:52:08;;;;;;;22.50;9.95;;;1.40;99.90;;;;;;5009102;28;20439;-66
2022/04/02 11:54:49;;;;;;;23.75;10.20;;;1.50;99.90;;;;;;5009970;28;20023;-66
2022/04/02 11:57:16;;;;;;;22.77;10.43;;;1.70;99.90;;;;;;5004391;28;20385;-66
2022/04/02 12:00:01;;;;;;;26.02;11.45;;;1.70;99.90;;;;;;5011487;28;20036;-65
2022/04/02 12:02:40;;;;;;;22.08;9.93;;;1.90;99.90;;;;;;5008072;28;20119;-67
2022/04/02 12:05:07;;;;;;;22.55;10.38;;;1.80;99.90;;;;;;5006925;28;20060;-67
2022/04/02 12:07:49;;;;;;;27.60;10.32;;;1.80;99.90;;;;;;5009312;28;20034;-67
2022/04/02 12:10:17;;;;;;;26.85;10.80;;;1.70;99.90;;;;;;5004761;28;20088;-67
2022/04/02 12:12:50;;;;;;;26.23;11.30;;;1.60;99.90;;;;;;5006492;28;20041;-67
2022/04/02 12:15:17;;;;;;;27.58;10.57;;;1.70;99.90;;;;;;5010035;28;20045;-67
2022/04/02 12:17:47;;;;;;;23.27;10.70;;;2.00;99.90;;;;;;5008671;28;20030;-67
2022/04/02 12:20:25;;;;;;;23.25;10.20;;;1.90;99.90;;;;;;5008243;28;20045;-66
2022/04/02 12:23:15;;;;;;;26.05;10.43;;;1.90;99.90;;;;;;5008099;28;20045;-67
2022/04/02 12:25:46;;;;;;;23.98;10.13;;;2.00;99.90;;;;;;5007289;28;20076;-66
2022/04/02 12:28:17;;;;;;;22.88;10.10;;;2.00;99.90;;;;;;5009433;28;20033;-67
2022/04/02 12:30:48;;;;;;;25.98;11.95;;;1.90;99.90;;;;;;5008266;28;20026;-66
2022/04/02 12:33:17;;;;;;;29.70;12.57;;;1.90;99.90;;;;;;5012875;28;20048;-67
2022/04/02 12:36:06;;;;;;;26.95;11.93;;;1.80;99.90;;;;;;5008087;28;20807;-67
2022/04/02 12:38:34;;;;;;;23.75;11.32;;;1.80;99.90;;;;;;5003579;28;20084;-67
2022/04/02 12:41:02;;;;;;;23.35;11.50;;;1.90;99.90;;;;;;5008444;28;20053;-66
2022/04/02 12:43:31;;;;;;;24.17;11.07;;;2.10;99.90;;;;;;5009271;28;20042;-67
2022/04/02 12:45:59;;;;;;;24.23;10.37;;;1.90;99.90;;;;;;5011430;28;20040;-66
2022/04/02 12:48:26;;;;;;;24.42;11.52;;;1.70;99.90;;;;;;5008570;28;20360;-67
2022/04/02 12:51:01;;;;;;;29.58;13.38;;;1.80;99.90;;;;;;5005825;28;20488;-67
2022/04/02 12:53:31;;;;;;;33.58;13.70;;;1.80;99.90;;;;;;5008322;28;20512;-67
2022/04/02 12:56:03;;;;;;;41.85;15.07;;;2.00;99.90;;;;;;5006534;28;20036;-67
2022/04/02 12:58:41;;;;;;;32.72;14.32;;;2.00;99.90;;;;;;5008132;28;20082;-67
2022/04/02 13:01:27;;;;;;;36.00;14.02;;;1.90;99.90;;;;;;5008316;28;20026;-67